createdAt,value
2023-02-14T00:01:52.119Z,4.80
2023-02-14T00:04:20.736Z,5.10
2023-02-14T00:06:52.809Z,5.40
2023-02-14T00:09:21.419Z,4.80
2023-02-14T00:11:55.002Z,4.80
2023-02-14T00:14:42.960Z,5.50
2023-02-14T00:17:11.307Z,5.20
2023-02-14T00:19:39.997Z,5.40
2023-02-14T00:22:08.497Z,4.90
2023-02-14T00:24:38.084Z,5.90
2023-02-14T00:27:07.205Z,5.50
2023-02-14T00:29:35.680Z,4.70
2023-02-14T00:32:04.458Z,5.10
2023-02-14T00:34:33.744Z,4.70
2023-02-14T00:37:03.539Z,4.50
2023-02-14T00:39:32.251Z,5.70
2023-02-14T00:42:01.386Z,6.50
2023-02-14T00:44:30.024Z,5.30
2023-02-14T00:46:59.219Z,6.20
2023-02-14T00:49:27.734Z,5.50
2023-02-14T00:51:56.283Z,3.90
2023-02-14T00:54:25.893Z,4.90
2023-02-14T00:56:54.294Z,6.60
2023-02-14T00:59:22.655Z,5.60
2023-02-14T01:01:51.652Z,4.70
2023-02-14T01:04:20.134Z,5.20
2023-02-14T01:06:48.805Z,5.40
2023-02-14T01:09:17.388Z,6.40
2023-02-14T01:11:46.387Z,5.50
2023-02-14T01:14:16.913Z,5.40
2023-02-14T01:16:45.421Z,4.60
2023-02-14T01:19:14.197Z,3.90
2023-02-14T01:21:45.232Z,4.30
2023-02-14T01:24:14.044Z,4.50
2023-02-14T01:26:45.044Z,4.10
2023-02-14T01:29:13.836Z,3.60
2023-02-14T01:31:42.475Z,4.30
2023-02-14T01:34:11.001Z,4.10
2023-02-14T01:36:41.025Z,4.00
2023-02-14T01:39:14.575Z,4.20
2023-02-14T01:41:43.520Z,3.50
2023-02-14T01:44:14.990Z,4.00
2023-02-14T01:46:44.673Z,3.20
2023-02-14T01:49:15.002Z,3.90
2023-02-14T01:51:46.550Z,4.70
2023-02-14T01:54:14.908Z,3.70
2023-02-14T01:56:49.864Z,3.30
2023-02-14T01:59:21.252Z,4.40
2023-02-14T02:01:50.616Z,4.40
2023-02-14T02:04:22.447Z,3.80
2023-02-14T02:07:01.990Z,3.80
2023-02-14T02:09:42.688Z,4.20
2023-02-14T02:12:11.059Z,3.70
2023-02-14T02:14:39.352Z,3.80
2023-02-14T02:17:32.813Z,3.50
2023-02-14T02:20:24.673Z,3.40
2023-02-14T02:23:21.695Z,3.70
2023-02-14T02:33:46.833Z,3.10
2023-02-14T02:36:41.529Z,3.60
2023-02-14T02:39:12.672Z,3.00
2023-02-14T02:42:07.187Z,3.00
2023-02-14T02:44:57.208Z,3.00
2023-02-14T02:47:25.644Z,2.70
2023-02-14T02:50:51.356Z,2.40
2023-02-14T02:53:33.388Z,3.30
2023-02-14T02:56:41.818Z,2.90
2023-02-14T02:59:20.920Z,3.00
2023-02-14T03:02:17.851Z,3.10
2023-02-14T03:04:56.063Z,3.10
2023-02-14T03:07:39.301Z,3.50
2023-02-14T03:10:14.727Z,2.60
2023-02-14T03:13:01.735Z,3.00
2023-02-14T03:16:08.534Z,3.20
2023-02-14T03:19:02.914Z,3.40
2023-02-14T03:21:48.621Z,3.80
2023-02-14T03:24:20.038Z,4.00
2023-02-14T03:27:07.363Z,3.50
2023-02-14T03:29:43.281Z,2.70
2023-02-14T03:32:15.809Z,3.70
2023-02-14T03:35:10.411Z,3.60
2023-02-14T03:37:52.266Z,3.90
2023-02-14T03:40:43.005Z,4.00
2023-02-14T03:43:15.753Z,3.40
2023-02-14T03:45:57.211Z,3.40
2023-02-14T03:48:25.639Z,3.20
2023-02-14T03:50:54.218Z,3.10
2023-02-14T03:53:25.763Z,3.50
2023-02-14T03:56:08.480Z,3.40
2023-02-14T03:58:45.342Z,2.80
2023-02-14T04:01:22.206Z,2.90
2023-02-14T04:03:51.073Z,3.30
2023-02-14T04:06:19.925Z,2.70
2023-02-14T04:08:49.052Z,2.60
2023-02-14T04:11:23.429Z,2.50
2023-02-14T04:13:53.131Z,2.20
2023-02-14T04:16:21.579Z,2.90
2023-02-14T04:19:09.345Z,2.50
2023-02-14T04:21:38.158Z,2.80
2023-02-14T04:24:07.233Z,2.70
2023-02-14T04:26:35.819Z,3.10
2023-02-14T04:29:04.508Z,2.30
2023-02-14T04:31:34.691Z,2.70
2023-02-14T04:34:03.404Z,2.30
2023-02-14T04:36:31.822Z,2.50
2023-02-14T04:39:03.643Z,2.40
2023-02-14T04:41:32.063Z,2.70
2023-02-14T04:44:00.605Z,2.80
2023-02-14T04:46:29.603Z,2.90
2023-02-14T04:48:58.109Z,3.00
2023-02-14T04:51:27.643Z,2.50
2023-02-14T04:53:56.233Z,3.10
2023-02-14T04:56:26.313Z,3.10
2023-02-14T04:58:55.066Z,4.30
2023-02-14T05:01:23.345Z,3.70
2023-02-14T05:03:52.051Z,2.10
2023-02-14T05:06:20.718Z,3.10
2023-02-14T05:08:49.145Z,2.20
2023-02-14T05:11:17.790Z,2.20
2023-02-14T05:13:46.155Z,2.90
2023-02-14T05:16:14.704Z,2.20
2023-02-14T05:18:44.863Z,3.10
2023-02-14T05:21:14.367Z,3.50
2023-02-14T05:23:42.955Z,2.80
2023-02-14T05:26:11.321Z,2.10
2023-02-14T05:28:41.241Z,2.90
2023-02-14T05:31:10.122Z,2.20
2023-02-14T05:33:39.866Z,2.10
2023-02-14T05:36:08.631Z,2.00
2023-02-14T05:38:37.435Z,2.20
2023-02-14T05:41:06.202Z,2.60
2023-02-14T05:43:34.788Z,2.40
2023-02-14T05:46:06.358Z,2.30
2023-02-14T05:48:35.656Z,2.30
2023-02-14T05:51:06.064Z,2.70
2023-02-14T05:53:34.875Z,2.30
2023-02-14T05:56:03.451Z,2.20
2023-02-14T05:58:32.326Z,2.70
2023-02-14T06:01:01.373Z,1.70
2023-02-14T06:03:30.430Z,3.00
2023-02-14T06:05:58.838Z,2.10
2023-02-14T06:08:28.928Z,2.00
2023-02-14T06:10:57.737Z,2.30
2023-02-14T06:13:30.177Z,1.90
2023-02-14T06:15:58.784Z,2.60
2023-02-14T06:18:29.803Z,2.70
2023-02-14T06:20:58.859Z,2.00
2023-02-14T06:23:27.684Z,2.20
2023-02-14T06:25:56.371Z,1.90
2023-02-14T06:28:25.261Z,2.40
2023-02-14T06:30:54.016Z,2.40
2023-02-14T06:33:22.527Z,2.10
2023-02-14T06:35:54.174Z,2.10
2023-02-14T06:38:22.361Z,1.80
2023-02-14T06:40:53.606Z,2.20
2023-02-14T06:43:22.289Z,2.40
2023-02-14T06:45:50.794Z,2.70
2023-02-14T06:48:20.169Z,2.10
2023-02-14T06:50:48.549Z,2.10
2023-02-14T06:53:17.441Z,2.00
2023-02-14T06:55:46.127Z,1.90
2023-02-14T06:58:15.552Z,2.20
2023-02-14T07:00:44.212Z,2.60
2023-02-14T07:03:14.229Z,1.90
2023-02-14T07:05:45.255Z,2.50
2023-02-14T07:08:18.876Z,2.40
2023-02-14T07:10:47.664Z,2.20
2023-02-14T07:13:15.973Z,1.70
2023-02-14T07:15:44.563Z,2.40
2023-02-14T07:18:13.000Z,1.80
2023-02-14T07:20:42.010Z,2.00
2023-02-14T07:23:11.086Z,2.40
2023-02-14T07:25:40.876Z,2.20
2023-02-14T07:28:09.190Z,2.70
2023-02-14T07:30:37.782Z,2.00
2023-02-14T07:33:06.242Z,3.40
2023-02-14T07:35:35.850Z,2.10
2023-02-14T07:38:04.119Z,2.20
2023-02-14T07:40:33.250Z,1.70
2023-02-14T07:43:01.694Z,1.90
2023-02-14T07:45:30.323Z,1.80
2023-02-14T07:48:02.298Z,1.90
2023-02-14T07:50:31.345Z,2.40
2023-02-14T07:52:59.814Z,2.70
2023-02-14T07:55:28.505Z,2.00
2023-02-14T07:57:57.504Z,1.30
2023-02-14T08:00:26.177Z,2.40
2023-02-14T08:02:56.142Z,1.90
2023-02-14T08:05:24.514Z,1.80
2023-02-14T08:07:52.989Z,2.20
2023-02-14T08:10:21.953Z,2.00
2023-02-14T08:12:59.564Z,2.80
2023-02-14T08:15:48.343Z,2.20
2023-02-14T08:18:20.768Z,1.80
2023-02-14T08:20:50.169Z,1.90
2023-02-14T08:23:19.669Z,1.90
2023-02-14T08:25:48.975Z,1.90
2023-02-14T08:28:18.082Z,1.80
2023-02-14T08:30:46.475Z,2.20
2023-02-14T08:33:15.028Z,2.00
2023-02-14T08:35:43.488Z,1.60
2023-02-14T08:38:12.004Z,2.30
2023-02-14T08:40:41.905Z,1.40
2023-02-14T08:43:10.530Z,1.80
2023-02-14T08:45:39.137Z,2.50
2023-02-14T08:48:09.934Z,2.50
2023-02-14T08:50:39.106Z,1.80
2023-02-14T08:53:12.237Z,1.80
2023-02-14T08:55:40.688Z,2.00
2023-02-14T08:58:10.706Z,1.80
2023-02-14T09:00:39.538Z,1.90
2023-02-14T09:05:40.946Z,2.00
2023-02-14T09:08:09.612Z,2.10
2023-02-14T09:10:43.854Z,2.00
2023-02-14T09:13:13.563Z,1.90
2023-02-14T09:15:41.966Z,2.20
2023-02-14T09:18:11.640Z,2.00
2023-02-14T09:20:40.235Z,1.80
2023-02-14T09:23:08.385Z,2.00
2023-02-14T09:25:37.602Z,2.10
2023-02-14T09:28:06.284Z,2.00
2023-02-14T09:30:35.141Z,1.70
2023-02-14T09:33:05.631Z,2.40
2023-02-14T09:35:34.333Z,1.50
2023-02-14T09:38:19.976Z,2.00
2023-02-14T09:40:50.628Z,1.50
2023-02-14T09:43:58.836Z,1.70
2023-02-14T09:46:29.246Z,1.90
2023-02-14T09:48:57.747Z,2.30
2023-02-14T09:51:27.860Z,2.00
2023-02-14T09:54:01.446Z,1.80
2023-02-14T09:56:51.831Z,1.60
2023-02-14T09:59:38.079Z,1.80
2023-02-14T10:02:07.059Z,1.60
2023-02-14T10:04:39.920Z,1.40
2023-02-14T10:07:19.347Z,1.70
2023-02-14T10:09:50.700Z,1.40
2023-02-14T10:12:23.820Z,1.70
2023-02-14T10:14:53.708Z,1.60
2023-02-14T10:17:36.621Z,1.80
2023-02-14T10:20:11.851Z,1.60
2023-02-14T10:22:50.378Z,1.80
2023-02-14T10:25:28.888Z,1.70
2023-02-14T10:27:58.683Z,1.90
2023-02-14T10:30:27.708Z,2.30
2023-02-14T10:33:07.856Z,1.50
2023-02-14T10:35:55.792Z,1.70
2023-02-14T10:38:51.517Z,1.90
2023-02-14T10:41:23.165Z,2.10
2023-02-14T10:43:57.977Z,1.80
2023-02-14T10:46:44.906Z,2.00
2023-02-14T10:49:18.742Z,2.10
2023-02-14T10:51:51.499Z,1.60
2023-02-14T10:54:26.321Z,1.30
2023-02-14T10:57:03.584Z,1.90
2023-02-14T10:59:51.245Z,1.60
2023-02-14T11:02:23.502Z,1.80
2023-02-14T11:04:53.940Z,2.00
2023-02-14T11:07:22.531Z,2.20
2023-02-14T11:09:53.352Z,1.90
2023-02-14T11:12:51.984Z,1.50
2023-02-14T11:15:27.767Z,2.20
2023-02-14T11:18:32.112Z,1.50
2023-02-14T11:21:06.533Z,2.00
2023-02-14T11:23:46.489Z,1.90
2023-02-14T11:26:17.326Z,1.50
2023-02-14T11:28:52.451Z,1.70
2023-02-14T11:31:27.000Z,1.40
2023-02-14T11:33:55.969Z,1.70
2023-02-14T11:36:24.380Z,1.20
2023-02-14T11:39:19.261Z,1.80
2023-02-14T11:41:56.452Z,1.80
2023-02-14T11:44:27.245Z,1.40
2023-02-14T11:46:57.283Z,1.80
2023-02-14T11:49:33.059Z,1.60
2023-02-14T11:52:10.362Z,1.80
2023-02-14T11:54:41.159Z,2.30
2023-02-14T11:57:22.340Z,2.00
2023-02-14T11:59:53.469Z,1.40
2023-02-14T12:02:47.442Z,2.10
2023-02-14T12:05:18.853Z,1.90
2023-02-14T12:07:51.695Z,1.90
2023-02-14T12:10:32.067Z,2.10
2023-02-14T12:13:04.355Z,2.00
2023-02-14T12:15:44.325Z,2.30
2023-02-14T12:18:48.392Z,1.90
2023-02-14T12:21:48.446Z,1.70
2023-02-14T12:24:29.713Z,1.60
2023-02-14T12:27:30.732Z,2.20
2023-02-14T12:30:00.919Z,1.80
2023-02-14T12:32:30.788Z,2.00
2023-02-14T12:35:03.353Z,1.70
2023-02-14T12:37:41.445Z,1.70
2023-02-14T12:40:22.223Z,1.30
2023-02-14T12:50:33.765Z,1.50
2023-02-14T12:53:09.462Z,1.70
2023-02-14T12:55:53.650Z,1.50
2023-02-14T12:58:31.773Z,1.40
2023-02-14T13:01:09.555Z,1.70
2023-02-14T13:03:57.396Z,1.70
2023-02-14T13:06:34.081Z,1.60
2023-02-14T13:09:05.418Z,1.60
2023-02-14T13:14:39.960Z,1.60
2023-02-14T13:17:35.097Z,1.70
2023-02-14T13:20:22.286Z,1.90
2023-02-14T13:22:50.859Z,1.80
2023-02-14T13:25:34.081Z,1.60
2023-02-14T13:28:05.138Z,2.10
2023-02-14T13:30:38.793Z,1.70
2023-02-14T13:33:08.952Z,1.80
2023-02-14T13:35:38.417Z,2.20
2023-02-14T13:38:08.780Z,1.80
2023-02-14T13:40:38.598Z,2.00
2023-02-14T13:43:07.189Z,2.20
2023-02-14T13:45:40.881Z,1.80
2023-02-14T13:48:26.572Z,1.50
2023-02-14T13:50:56.168Z,2.00
2023-02-14T13:53:46.204Z,1.90
2023-02-14T13:56:17.714Z,1.80
2023-02-14T13:59:05.862Z,1.60
2023-02-14T14:01:50.400Z,1.30
2023-02-14T14:04:28.219Z,1.90
2023-02-14T14:07:03.561Z,1.80
2023-02-14T14:09:43.940Z,2.20
2023-02-14T14:12:28.504Z,1.40
2023-02-14T14:15:06.723Z,1.90
2023-02-14T14:17:37.305Z,1.90
2023-02-14T14:20:26.568Z,2.00
2023-02-14T14:22:56.492Z,1.60
2023-02-14T14:25:41.858Z,1.60
2023-02-14T14:28:17.557Z,1.40
2023-02-14T14:30:46.557Z,1.50
2023-02-14T14:33:34.788Z,1.50
2023-02-14T14:36:07.678Z,1.90
2023-02-14T14:41:14.434Z,1.90
2023-02-14T14:43:42.948Z,1.90
2023-02-14T14:46:12.258Z,1.80
2023-02-14T14:48:49.429Z,1.90
2023-02-14T14:51:29.177Z,2.10
2023-02-14T14:53:57.410Z,2.10
2023-02-14T14:56:27.610Z,1.60
2023-02-14T14:58:55.825Z,2.30
2023-02-14T15:01:38.423Z,2.10
2023-02-14T15:04:34.032Z,2.30
2023-02-14T15:07:28.120Z,1.90
2023-02-14T15:12:43.923Z,2.30
2023-02-14T15:15:13.860Z,2.10
2023-02-14T15:17:43.253Z,2.10
2023-02-14T15:20:17.967Z,1.40
2023-02-14T15:22:48.823Z,1.60
2023-02-14T15:25:19.581Z,1.60
2023-02-14T15:27:48.447Z,1.40
2023-02-14T15:30:20.515Z,1.40
2023-02-14T15:32:49.905Z,1.10
2023-02-14T15:35:23.709Z,2.10
2023-02-14T15:37:52.389Z,1.20
2023-02-14T15:40:26.272Z,1.20
2023-02-14T15:42:59.185Z,1.20
2023-02-14T15:45:28.171Z,1.40
2023-02-14T15:48:20.750Z,1.50
2023-02-14T15:50:53.091Z,1.30
2023-02-14T15:53:41.474Z,1.10
2023-02-14T15:56:20.315Z,1.20
2023-02-14T15:58:49.860Z,1.20
2023-02-14T16:01:21.891Z,1.10
2023-02-14T16:03:52.558Z,1.20
2023-02-14T16:07:02.736Z,1.40
2023-02-14T16:09:34.342Z,1.40
2023-02-14T16:12:21.431Z,1.30
2023-02-14T16:15:01.501Z,1.90
2023-02-14T16:17:33.685Z,1.20
2023-02-14T16:20:24.018Z,1.20
2023-02-14T16:22:52.377Z,1.30
2023-02-14T16:25:21.923Z,1.80
2023-02-14T16:27:51.581Z,1.10
2023-02-14T16:30:20.806Z,1.30
2023-02-14T16:32:50.839Z,1.00
2023-02-14T16:35:20.436Z,1.50
2023-02-14T16:37:48.888Z,1.20
2023-02-14T16:40:17.882Z,1.00
2023-02-14T16:42:46.480Z,1.40
2023-02-14T16:45:16.782Z,1.40
2023-02-14T16:47:48.861Z,1.40
2023-02-14T16:50:18.048Z,1.30
2023-02-14T16:52:48.063Z,1.50
2023-02-14T16:55:17.055Z,1.40
2023-02-14T16:57:46.890Z,1.30
2023-02-14T17:00:15.976Z,1.80
2023-02-14T17:02:44.613Z,0.90
2023-02-14T17:05:13.648Z,1.20
2023-02-14T17:07:43.043Z,1.80
2023-02-14T17:10:18.592Z,1.30
2023-02-14T17:12:47.511Z,1.50
2023-02-14T17:15:20.678Z,2.20
2023-02-14T17:20:22.982Z,2.00
2023-02-14T17:22:55.867Z,1.70
2023-02-14T17:25:24.124Z,1.10
2023-02-14T17:27:52.702Z,2.10
2023-02-14T17:30:21.549Z,1.20
2023-02-14T17:32:50.174Z,1.80
2023-02-14T17:35:18.911Z,1.00
2023-02-14T17:37:47.650Z,1.70
2023-02-14T17:40:17.577Z,1.30
2023-02-14T17:42:46.357Z,1.30
2023-02-14T17:45:15.549Z,1.40
2023-02-14T17:47:45.468Z,1.40
2023-02-14T17:50:15.001Z,1.60
2023-02-14T17:52:44.269Z,1.00
2023-02-14T17:55:13.360Z,1.30
2023-02-14T17:57:41.975Z,1.60
2023-02-14T18:00:18.613Z,1.40
2023-02-14T18:02:47.211Z,1.20
2023-02-14T18:05:17.425Z,2.00
2023-02-14T18:07:46.110Z,1.90
2023-02-14T18:10:15.924Z,2.40
2023-02-14T18:12:44.871Z,1.70
2023-02-14T18:15:13.609Z,1.60
2023-02-14T18:17:42.290Z,1.60
2023-02-14T18:20:11.486Z,2.30
2023-02-14T18:22:39.760Z,1.90
2023-02-14T18:25:16.231Z,2.10
2023-02-14T18:27:44.920Z,1.90
2023-02-14T18:30:14.174Z,1.20
2023-02-14T18:32:42.920Z,1.50
2023-02-14T18:35:13.731Z,1.50
2023-02-14T18:37:48.072Z,2.30
2023-02-14T18:40:24.515Z,1.90
2023-02-14T18:42:54.507Z,1.70
2023-02-14T18:45:22.883Z,1.10
2023-02-14T18:47:52.838Z,1.20
2023-02-14T18:50:21.515Z,1.20
2023-02-14T18:52:50.302Z,1.20
2023-02-14T18:55:25.132Z,1.30
2023-02-14T18:57:56.476Z,1.30
2023-02-14T19:00:26.316Z,1.50
2023-02-14T19:02:58.802Z,1.00
2023-02-14T19:08:00.663Z,1.30
2023-02-14T19:10:28.913Z,1.20
2023-02-14T19:12:57.511Z,1.10
2023-02-14T19:15:25.884Z,1.60
2023-02-14T19:18:00.408Z,1.70
2023-02-14T19:20:32.088Z,1.30
2023-02-14T19:23:00.657Z,1.10
2023-02-14T19:25:32.657Z,1.60
2023-02-14T19:28:00.902Z,1.50
2023-02-14T19:30:30.532Z,1.70
2023-02-14T19:32:59.893Z,1.80
2023-02-14T19:35:28.178Z,1.60
2023-02-14T19:37:56.642Z,1.30
2023-02-14T19:40:25.131Z,1.20
2023-02-14T19:42:53.715Z,1.50
2023-02-14T19:45:23.212Z,1.00
2023-02-14T19:47:52.205Z,1.30
2023-02-14T19:50:22.340Z,1.80
2023-02-14T19:52:51.018Z,1.50
2023-02-14T19:55:22.982Z,1.50
2023-02-14T19:57:51.463Z,1.30
2023-02-14T20:00:21.281Z,2.20
2023-02-14T20:02:50.398Z,1.70
2023-02-14T20:05:19.710Z,1.30
2023-02-14T20:07:54.615Z,1.80
2023-02-14T20:10:27.584Z,1.30
2023-02-14T20:12:56.185Z,2.00
2023-02-14T20:15:26.582Z,1.90
2023-02-14T20:17:57.320Z,1.90
2023-02-14T20:20:25.797Z,2.00
2023-02-14T20:22:57.455Z,1.30
2023-02-14T20:25:26.444Z,1.30
2023-02-14T20:27:54.955Z,2.40
2023-02-14T20:30:23.597Z,2.00
2023-02-14T20:32:54.319Z,1.70
2023-02-14T20:35:22.850Z,1.90
2023-02-14T20:37:52.736Z,2.00
2023-02-14T20:40:21.126Z,1.80
2023-02-14T20:42:49.907Z,1.40
2023-02-14T20:45:18.279Z,1.30
2023-02-14T20:47:49.117Z,1.60
2023-02-14T20:50:18.318Z,1.90
2023-02-14T20:52:46.695Z,1.50
2023-02-14T20:55:15.333Z,1.10
2023-02-14T20:57:43.865Z,1.40
2023-02-14T21:00:12.958Z,1.10
2023-02-14T21:02:41.581Z,2.50
2023-02-14T21:05:10.126Z,1.30
2023-02-14T21:07:38.610Z,1.50
2023-02-14T21:10:07.597Z,1.30
2023-02-14T21:12:38.731Z,0.90
2023-02-14T21:15:10.907Z,1.70
2023-02-14T21:17:39.901Z,0.80
2023-02-14T21:20:10.739Z,1.40
2023-02-14T21:22:41.163Z,1.00
2023-02-14T21:25:09.583Z,1.00
2023-02-14T21:27:39.355Z,1.60
2023-02-14T21:30:09.027Z,1.20
2023-02-14T21:32:38.073Z,1.40
2023-02-14T21:35:06.951Z,1.60
2023-02-14T21:37:35.739Z,1.20
2023-02-14T21:40:04.809Z,1.20
2023-02-14T21:42:33.108Z,1.80
2023-02-14T21:45:20.135Z,1.30
2023-02-14T21:48:08.368Z,1.30
2023-02-14T21:50:37.902Z,1.30
2023-02-14T21:53:07.677Z,1.50
2023-02-14T21:55:37.289Z,1.10
2023-02-14T21:58:05.465Z,1.40
2023-02-14T22:00:34.862Z,1.30
2023-02-14T22:03:03.092Z,1.20
2023-02-14T22:05:32.846Z,1.40
2023-02-14T22:08:01.334Z,1.20
2023-02-14T22:10:30.040Z,1.80
2023-02-14T22:12:58.391Z,1.50
2023-02-14T22:15:32.399Z,1.40
2023-02-14T22:18:01.089Z,1.50
2023-02-14T22:20:30.082Z,1.30
2023-02-14T22:22:58.772Z,1.30
2023-02-14T22:25:26.953Z,1.60
2023-02-14T22:27:55.418Z,1.80
2023-02-14T22:30:25.896Z,1.20
2023-02-14T22:32:54.965Z,1.50
2023-02-14T22:35:23.632Z,1.40
2023-02-14T22:37:52.521Z,1.80
2023-02-14T22:40:21.410Z,1.40
2023-02-14T22:42:50.291Z,1.60
2023-02-14T22:45:18.499Z,1.40
2023-02-14T22:47:46.746Z,1.40
2023-02-14T22:50:15.025Z,1.50
2023-02-14T22:52:44.561Z,1.20
2023-02-14T22:55:13.013Z,1.40
2023-02-14T22:57:41.793Z,1.80
2023-02-14T23:00:12.011Z,1.50
2023-02-14T23:02:41.350Z,1.40
2023-02-14T23:05:10.045Z,1.60
2023-02-14T23:07:38.585Z,1.50
2023-02-14T23:10:08.297Z,1.60
2023-02-14T23:12:58.799Z,1.30
2023-02-14T23:15:53.537Z,1.20
2023-02-14T23:18:40.807Z,1.50
2023-02-14T23:21:32.225Z,1.30
2023-02-14T23:24:00.422Z,0.90
2023-02-14T23:26:28.806Z,1.10
2023-02-14T23:28:58.120Z,1.70
2023-02-14T23:31:26.527Z,1.50
2023-02-14T23:33:55.336Z,1.20
2023-02-14T23:36:23.818Z,1.30
2023-02-14T23:38:52.407Z,1.90
2023-02-14T23:41:39.939Z,1.20
2023-02-14T23:44:08.418Z,1.30
2023-02-14T23:46:37.103Z,0.90
2023-02-14T23:49:06.809Z,1.40
2023-02-14T23:51:36.583Z,1.30
2023-02-14T23:54:04.999Z,1.80
2023-02-14T23:56:35.633Z,1.10
2023-02-14T23:59:05.167Z,1.30
